sensor_id;sensor_type;location;lat;lon;timestamp;P1;durP1;ratioP1;P2;durP2;ratioP2
49678;SDS011;35570;48.218;16.326;2023-03-19T00:00:38;11.00;;;8.27;;
49678;SDS011;35570;48.218;16.326;2023-03-19T00:03:04;10.52;;;8.25;;
49678;SDS011;35570;48.218;16.326;2023-03-19T00:05:29;11.68;;;8.32;;
49678;SDS011;35570;48.218;16.326;2023-03-19T00:07:55;11.93;;;9.10;;
49678;SDS011;35570;48.218;16.326;2023-03-19T00:10:21;12.95;;;8.38;;
49678;SDS011;35570;48.218;16.326;2023-03-19T00:12:46;11.20;;;8.30;;
49678;SDS011;35570;48.218;16.326;2023-03-19T00:15:12;10.27;;;7.80;;
49678;SDS011;35570;48.218;16.326;2023-03-19T00:17:39;10.35;;;7.85;;
49678;SDS011;35570;48.218;16.326;2023-03-19T00:20:08;10.70;;;8.52;;
49678;SDS011;35570;48.218;16.326;2023-03-19T00:22:36;12.88;;;8.18;;
49678;SDS011;35570;48.218;16.326;2023-03-19T00:25:01;12.35;;;8.23;;
49678;SDS011;35570;48.218;16.326;2023-03-19T00:27:27;9.68;;;7.68;;
49678;SDS011;35570;48.218;16.326;2023-03-19T00:29:53;10.63;;;7.72;;
49678;SDS011;35570;48.218;16.326;2023-03-19T00:32:19;9.93;;;8.00;;
49678;SDS011;35570;48.218;16.326;2023-03-19T00:34:45;10.38;;;7.47;;
49678;SDS011;35570;48.218;16.326;2023-03-19T00:37:11;10.27;;;7.68;;
49678;SDS011;35570;48.218;16.326;2023-03-19T00:39:37;11.88;;;7.63;;
49678;SDS011;35570;48.218;16.326;2023-03-19T00:42:03;12.38;;;7.78;;
49678;SDS011;35570;48.218;16.326;2023-03-19T00:44:28;11.15;;;7.50;;
49678;SDS011;35570;48.218;16.326;2023-03-19T00:46:54;10.82;;;7.68;;
49678;SDS011;35570;48.218;16.326;2023-03-19T00:49:20;9.75;;;7.43;;
49678;SDS011;35570;48.218;16.326;2023-03-19T00:51:46;11.32;;;8.07;;
49678;SDS011;35570;48.218;16.326;2023-03-19T00:56:57;10.07;;;7.50;;
49678;SDS011;35570;48.218;16.326;2023-03-19T00:59:23;12.82;;;8.23;;
49678;SDS011;35570;48.218;16.326;2023-03-19T01:01:49;10.23;;;8.25;;
49678;SDS011;35570;48.218;16.326;2023-03-19T01:04:15;11.38;;;8.27;;
49678;SDS011;35570;48.218;16.326;2023-03-19T01:06:42;11.57;;;7.85;;
49678;SDS011;35570;48.218;16.326;2023-03-19T01:09:08;13.25;;;8.07;;
49678;SDS011;35570;48.218;16.326;2023-03-19T01:11:34;9.82;;;7.63;;
49678;SDS011;35570;48.218;16.326;2023-03-19T01:17:29;9.85;;;7.93;;
49678;SDS011;35570;48.218;16.326;2023-03-19T01:19:54;12.70;;;9.05;;
49678;SDS011;35570;48.218;16.326;2023-03-19T01:22:21;9.57;;;7.85;;
49678;SDS011;35570;48.218;16.326;2023-03-19T01:24:46;9.98;;;7.85;;
49678;SDS011;35570;48.218;16.326;2023-03-19T01:27:12;9.75;;;8.35;;
49678;SDS011;35570;48.218;16.326;2023-03-19T01:29:38;11.15;;;8.68;;
49678;SDS011;35570;48.218;16.326;2023-03-19T01:32:03;11.10;;;8.82;;
49678;SDS011;35570;48.218;16.326;2023-03-19T01:34:44;11.52;;;7.90;;
49678;SDS011;35570;48.218;16.326;2023-03-19T01:37:11;11.35;;;7.68;;
49678;SDS011;35570;48.218;16.326;2023-03-19T01:39:37;10.48;;;8.15;;
49678;SDS011;35570;48.218;16.326;2023-03-19T01:42:03;8.85;;;6.97;;
49678;SDS011;35570;48.218;16.326;2023-03-19T01:44:30;11.98;;;8.10;;
49678;SDS011;35570;48.218;16.326;2023-03-19T01:46:58;11.13;;;7.78;;
49678;SDS011;35570;48.218;16.326;2023-03-19T01:49:27;9.63;;;7.60;;
49678;SDS011;35570;48.218;16.326;2023-03-19T01:51:54;12.90;;;8.32;;
49678;SDS011;35570;48.218;16.326;2023-03-19T01:54:23;11.65;;;7.75;;
49678;SDS011;35570;48.218;16.326;2023-03-19T01:56:52;11.00;;;7.70;;
49678;SDS011;35570;48.218;16.326;2023-03-19T01:59:46;12.88;;;8.05;;
49678;SDS011;35570;48.218;16.326;2023-03-19T02:02:29;13.00;;;8.02;;
49678;SDS011;35570;48.218;16.326;2023-03-19T02:04:57;9.60;;;7.28;;
49678;SDS011;35570;48.218;16.326;2023-03-19T02:07:28;11.15;;;8.18;;
49678;SDS011;35570;48.218;16.326;2023-03-19T02:09:56;11.90;;;8.05;;
49678;SDS011;35570;48.218;16.326;2023-03-19T02:12:23;10.55;;;7.90;;
49678;SDS011;35570;48.218;16.326;2023-03-19T02:14:48;9.60;;;7.55;;
49678;SDS011;35570;48.218;16.326;2023-03-19T02:17:14;9.02;;;7.45;;
49678;SDS011;35570;48.218;16.326;2023-03-19T02:22:51;8.93;;;7.13;;
49678;SDS011;35570;48.218;16.326;2023-03-19T02:29:09;9.07;;;7.50;;
49678;SDS011;35570;48.218;16.326;2023-03-19T02:36:45;10.85;;;7.88;;
49678;SDS011;35570;48.218;16.326;2023-03-19T02:40:01;11.85;;;7.25;;
49678;SDS011;35570;48.218;16.326;2023-03-19T02:45:29;10.38;;;8.32;;
49678;SDS011;35570;48.218;16.326;2023-03-19T02:47:57;10.32;;;7.10;;
49678;SDS011;35570;48.218;16.326;2023-03-19T02:50:23;9.25;;;7.68;;
49678;SDS011;35570;48.218;16.326;2023-03-19T02:52:50;11.40;;;8.02;;
49678;SDS011;35570;48.218;16.326;2023-03-19T02:55:16;9.05;;;7.28;;
49678;SDS011;35570;48.218;16.326;2023-03-19T02:57:42;9.23;;;7.55;;
49678;SDS011;35570;48.218;16.326;2023-03-19T03:00:09;10.05;;;7.07;;
49678;SDS011;35570;48.218;16.326;2023-03-19T03:02:36;11.00;;;7.82;;
49678;SDS011;35570;48.218;16.326;2023-03-19T03:05:03;12.93;;;7.75;;
49678;SDS011;35570;48.218;16.326;2023-03-19T03:07:30;12.57;;;7.95;;
49678;SDS011;35570;48.218;16.326;2023-03-19T03:09:56;12.15;;;8.65;;
49678;SDS011;35570;48.218;16.326;2023-03-19T03:12:22;11.20;;;7.53;;
49678;SDS011;35570;48.218;16.326;2023-03-19T03:14:56;12.00;;;7.63;;
49678;SDS011;35570;48.218;16.326;2023-03-19T03:17:21;12.48;;;7.38;;
49678;SDS011;35570;48.218;16.326;2023-03-19T03:19:48;9.93;;;7.60;;
49678;SDS011;35570;48.218;16.326;2023-03-19T03:22:15;11.60;;;8.20;;
49678;SDS011;35570;48.218;16.326;2023-03-19T03:27:50;9.82;;;7.70;;
49678;SDS011;35570;48.218;16.326;2023-03-19T03:30:16;11.23;;;7.72;;
49678;SDS011;35570;48.218;16.326;2023-03-19T03:32:52;10.75;;;8.15;;
49678;SDS011;35570;48.218;16.326;2023-03-19T03:38:40;11.73;;;7.70;;
49678;SDS011;35570;48.218;16.326;2023-03-19T03:41:06;10.25;;;7.60;;
49678;SDS011;35570;48.218;16.326;2023-03-19T03:43:32;10.98;;;7.93;;
49678;SDS011;35570;48.218;16.326;2023-03-19T03:45:57;9.02;;;7.10;;
49678;SDS011;35570;48.218;16.326;2023-03-19T03:51:28;11.68;;;7.82;;
49678;SDS011;35570;48.218;16.326;2023-03-19T03:53:53;10.68;;;7.57;;
49678;SDS011;35570;48.218;16.326;2023-03-19T03:56:25;8.50;;;7.15;;
49678;SDS011;35570;48.218;16.326;2023-03-19T03:58:51;9.10;;;7.25;;
49678;SDS011;35570;48.218;16.326;2023-03-19T04:01:17;12.68;;;8.60;;
49678;SDS011;35570;48.218;16.326;2023-03-19T04:03:43;9.23;;;7.93;;
49678;SDS011;35570;48.218;16.326;2023-03-19T04:06:16;11.57;;;7.95;;
49678;SDS011;35570;48.218;16.326;2023-03-19T04:11:09;9.32;;;7.95;;
49678;SDS011;35570;48.218;16.326;2023-03-19T04:13:34;11.93;;;8.35;;
49678;SDS011;35570;48.218;16.326;2023-03-19T04:16:03;9.35;;;7.30;;
49678;SDS011;35570;48.218;16.326;2023-03-19T04:18:30;11.73;;;8.68;;
49678;SDS011;35570;48.218;16.326;2023-03-19T04:20:56;11.05;;;8.55;;
49678;SDS011;35570;48.218;16.326;2023-03-19T04:23:22;14.63;;;8.63;;
49678;SDS011;35570;48.218;16.326;2023-03-19T04:25:48;11.50;;;8.02;;
49678;SDS011;35570;48.218;16.326;2023-03-19T04:28:14;9.30;;;7.88;;
49678;SDS011;35570;48.218;16.326;2023-03-19T04:30:40;9.63;;;8.07;;
49678;SDS011;35570;48.218;16.326;2023-03-19T04:33:07;11.35;;;8.27;;
49678;SDS011;35570;48.218;16.326;2023-03-19T04:38:19;12.07;;;8.60;;
49678;SDS011;35570;48.218;16.326;2023-03-19T04:40:46;9.65;;;8.50;;
49678;SDS011;35570;48.218;16.326;2023-03-19T04:43:12;10.52;;;8.70;;
49678;SDS011;35570;48.218;16.326;2023-03-19T04:45:38;10.63;;;8.30;;
49678;SDS011;35570;48.218;16.326;2023-03-19T04:48:09;15.07;;;8.40;;
49678;SDS011;35570;48.218;16.326;2023-03-19T04:53:21;12.77;;;8.30;;
49678;SDS011;35570;48.218;16.326;2023-03-19T04:55:48;9.75;;;8.18;;
49678;SDS011;35570;48.218;16.326;2023-03-19T04:58:18;9.68;;;8.00;;
49678;SDS011;35570;48.218;16.326;2023-03-19T05:00:45;13.23;;;8.52;;
49678;SDS011;35570;48.218;16.326;2023-03-19T05:03:12;10.80;;;8.65;;
49678;SDS011;35570;48.218;16.326;2023-03-19T05:05:38;10.32;;;8.73;;
49678;SDS011;35570;48.218;16.326;2023-03-19T05:08:04;10.85;;;9.07;;
49678;SDS011;35570;48.218;16.326;2023-03-19T05:10:32;15.75;;;9.55;;
49678;SDS011;35570;48.218;16.326;2023-03-19T05:12:58;10.45;;;8.55;;
49678;SDS011;35570;48.218;16.326;2023-03-19T05:15:24;11.50;;;8.57;;
49678;SDS011;35570;48.218;16.326;2023-03-19T05:17:50;12.82;;;8.35;;
49678;SDS011;35570;48.218;16.326;2023-03-19T05:20:15;11.15;;;8.77;;
49678;SDS011;35570;48.218;16.326;2023-03-19T05:22:42;12.65;;;8.95;;
49678;SDS011;35570;48.218;16.326;2023-03-19T05:25:07;12.10;;;8.43;;
49678;SDS011;35570;48.218;16.326;2023-03-19T05:27:34;10.23;;;8.43;;
49678;SDS011;35570;48.218;16.326;2023-03-19T05:29:59;10.57;;;8.20;;
49678;SDS011;35570;48.218;16.326;2023-03-19T05:32:25;12.00;;;9.18;;
49678;SDS011;35570;48.218;16.326;2023-03-19T05:34:51;11.93;;;9.00;;
49678;SDS011;35570;48.218;16.326;2023-03-19T05:37:17;12.63;;;8.93;;
49678;SDS011;35570;48.218;16.326;2023-03-19T05:39:43;10.13;;;8.23;;
49678;SDS011;35570;48.218;16.326;2023-03-19T05:42:08;13.02;;;9.07;;
49678;SDS011;35570;48.218;16.326;2023-03-19T05:44:34;14.88;;;9.02;;
49678;SDS011;35570;48.218;16.326;2023-03-19T05:47:00;9.73;;;8.73;;
49678;SDS011;35570;48.218;16.326;2023-03-19T05:49:26;11.45;;;9.45;;
49678;SDS011;35570;48.218;16.326;2023-03-19T05:51:51;11.77;;;9.43;;
49678;SDS011;35570;48.218;16.326;2023-03-19T05:54:17;10.50;;;8.90;;
49678;SDS011;35570;48.218;16.326;2023-03-19T05:56:43;13.73;;;9.15;;
49678;SDS011;35570;48.218;16.326;2023-03-19T05:59:08;12.02;;;9.45;;
49678;SDS011;35570;48.218;16.326;2023-03-19T06:01:34;10.63;;;8.63;;
49678;SDS011;35570;48.218;16.326;2023-03-19T06:04:00;11.93;;;9.55;;
49678;SDS011;35570;48.218;16.326;2023-03-19T06:06:26;11.18;;;9.35;;
49678;SDS011;35570;48.218;16.326;2023-03-19T06:08:51;10.85;;;8.98;;
49678;SDS011;35570;48.218;16.326;2023-03-19T06:11:17;11.68;;;9.27;;
49678;SDS011;35570;48.218;16.326;2023-03-19T06:13:43;10.90;;;9.45;;
49678;SDS011;35570;48.218;16.326;2023-03-19T06:19:30;12.05;;;9.73;;
49678;SDS011;35570;48.218;16.326;2023-03-19T06:21:56;11.95;;;9.77;;
49678;SDS011;35570;48.218;16.326;2023-03-19T06:24:22;11.13;;;9.10;;
49678;SDS011;35570;48.218;16.326;2023-03-19T06:26:47;14.18;;;10.68;;
49678;SDS011;35570;48.218;16.326;2023-03-19T06:29:13;12.52;;;9.65;;
49678;SDS011;35570;48.218;16.326;2023-03-19T06:31:39;11.43;;;9.57;;
49678;SDS011;35570;48.218;16.326;2023-03-19T06:37:30;12.57;;;9.90;;
49678;SDS011;35570;48.218;16.326;2023-03-19T06:39:56;12.77;;;10.32;;
49678;SDS011;35570;48.218;16.326;2023-03-19T06:42:22;11.68;;;9.30;;
49678;SDS011;35570;48.218;16.326;2023-03-19T06:44:48;13.18;;;9.57;;
49678;SDS011;35570;48.218;16.326;2023-03-19T06:47:13;12.48;;;10.50;;
49678;SDS011;35570;48.218;16.326;2023-03-19T06:49:39;11.60;;;10.05;;
49678;SDS011;35570;48.218;16.326;2023-03-19T06:52:05;12.75;;;10.68;;
49678;SDS011;35570;48.218;16.326;2023-03-19T06:54:31;11.05;;;9.32;;
49678;SDS011;35570;48.218;16.326;2023-03-19T06:56:57;14.32;;;10.10;;
49678;SDS011;35570;48.218;16.326;2023-03-19T06:59:27;14.88;;;10.45;;
49678;SDS011;35570;48.218;16.326;2023-03-19T07:01:53;12.98;;;9.57;;
49678;SDS011;35570;48.218;16.326;2023-03-19T07:04:18;14.40;;;10.50;;
49678;SDS011;35570;48.218;16.326;2023-03-19T07:06:44;12.27;;;9.73;;
49678;SDS011;35570;48.218;16.326;2023-03-19T07:09:10;13.18;;;10.27;;
49678;SDS011;35570;48.218;16.326;2023-03-19T07:11:36;11.80;;;9.80;;
49678;SDS011;35570;48.218;16.326;2023-03-19T07:14:02;14.32;;;10.68;;
49678;SDS011;35570;48.218;16.326;2023-03-19T07:16:28;13.40;;;10.45;;
49678;SDS011;35570;48.218;16.326;2023-03-19T07:18:54;13.20;;;10.00;;
49678;SDS011;35570;48.218;16.326;2023-03-19T07:21:20;14.15;;;10.07;;
49678;SDS011;35570;48.218;16.326;2023-03-19T07:23:47;15.30;;;11.15;;
49678;SDS011;35570;48.218;16.326;2023-03-19T07:26:14;14.68;;;11.23;;
49678;SDS011;35570;48.218;16.326;2023-03-19T07:28:40;13.13;;;10.77;;
49678;SDS011;35570;48.218;16.326;2023-03-19T07:31:06;14.00;;;9.70;;
49678;SDS011;35570;48.218;16.326;2023-03-19T07:33:32;12.48;;;10.85;;
49678;SDS011;35570;48.218;16.326;2023-03-19T07:35:58;11.93;;;10.30;;
49678;SDS011;35570;48.218;16.326;2023-03-19T07:38:23;12.60;;;10.05;;
49678;SDS011;35570;48.218;16.326;2023-03-19T07:40:49;10.95;;;9.63;;
49678;SDS011;35570;48.218;16.326;2023-03-19T07:43:15;13.18;;;10.88;;
49678;SDS011;35570;48.218;16.326;2023-03-19T07:45:41;14.05;;;10.80;;
49678;SDS011;35570;48.218;16.326;2023-03-19T07:48:07;12.55;;;10.35;;
49678;SDS011;35570;48.218;16.326;2023-03-19T07:50:32;11.30;;;10.13;;
49678;SDS011;35570;48.218;16.326;2023-03-19T07:52:58;12.57;;;11.30;;
49678;SDS011;35570;48.218;16.326;2023-03-19T07:55:24;14.73;;;10.30;;
49678;SDS011;35570;48.218;16.326;2023-03-19T07:57:50;12.88;;;10.00;;
49678;SDS011;35570;48.218;16.326;2023-03-19T08:00:16;12.70;;;10.77;;
49678;SDS011;35570;48.218;16.326;2023-03-19T08:02:42;12.57;;;10.52;;
49678;SDS011;35570;48.218;16.326;2023-03-19T08:05:08;12.32;;;10.40;;
49678;SDS011;35570;48.218;16.326;2023-03-19T08:07:34;12.25;;;10.23;;
49678;SDS011;35570;48.218;16.326;2023-03-19T08:10:01;12.05;;;10.10;;
49678;SDS011;35570;48.218;16.326;2023-03-19T08:12:28;12.40;;;10.00;;
49678;SDS011;35570;48.218;16.326;2023-03-19T08:14:53;11.73;;;10.15;;
49678;SDS011;35570;48.218;16.326;2023-03-19T08:17:19;12.10;;;10.40;;
49678;SDS011;35570;48.218;16.326;2023-03-19T08:19:45;12.15;;;10.85;;
49678;SDS011;35570;48.218;16.326;2023-03-19T08:22:11;12.02;;;9.82;;
49678;SDS011;35570;48.218;16.326;2023-03-19T08:24:37;12.57;;;9.93;;
49678;SDS011;35570;48.218;16.326;2023-03-19T08:27:03;11.70;;;10.02;;
49678;SDS011;35570;48.218;16.326;2023-03-19T08:29:28;12.65;;;10.35;;
49678;SDS011;35570;48.218;16.326;2023-03-19T08:31:54;13.90;;;10.77;;
49678;SDS011;35570;48.218;16.326;2023-03-19T08:34:21;13.07;;;10.75;;
49678;SDS011;35570;48.218;16.326;2023-03-19T08:36:46;11.30;;;10.20;;
49678;SDS011;35570;48.218;16.326;2023-03-19T08:39:13;11.55;;;9.57;;
49678;SDS011;35570;48.218;16.326;2023-03-19T08:41:38;16.52;;;11.75;;
49678;SDS011;35570;48.218;16.326;2023-03-19T08:44:04;12.95;;;11.45;;
49678;SDS011;35570;48.218;16.326;2023-03-19T08:46:31;12.32;;;10.85;;
49678;SDS011;35570;48.218;16.326;2023-03-19T08:48:57;13.80;;;10.68;;
49678;SDS011;35570;48.218;16.326;2023-03-19T08:51:23;12.73;;;10.07;;
49678;SDS011;35570;48.218;16.326;2023-03-19T08:53:50;14.50;;;11.05;;
49678;SDS011;35570;48.218;16.326;2023-03-19T08:56:16;12.63;;;10.77;;
49678;SDS011;35570;48.218;16.326;2023-03-19T08:58:42;15.00;;;11.10;;
49678;SDS011;35570;48.218;16.326;2023-03-19T09:01:10;11.38;;;10.27;;
49678;SDS011;35570;48.218;16.326;2023-03-19T09:03:38;12.02;;;10.43;;
49678;SDS011;35570;48.218;16.326;2023-03-19T09:06:06;13.73;;;10.85;;
49678;SDS011;35570;48.218;16.326;2023-03-19T09:08:33;14.05;;;11.27;;
49678;SDS011;35570;48.218;16.326;2023-03-19T09:11:00;12.35;;;10.15;;
49678;SDS011;35570;48.218;16.326;2023-03-19T09:13:26;12.05;;;10.60;;
49678;SDS011;35570;48.218;16.326;2023-03-19T09:15:52;13.52;;;12.00;;
49678;SDS011;35570;48.218;16.326;2023-03-19T09:18:18;13.63;;;11.85;;
49678;SDS011;35570;48.218;16.326;2023-03-19T09:20:45;16.13;;;11.30;;
49678;SDS011;35570;48.218;16.326;2023-03-19T09:23:11;12.52;;;10.40;;
49678;SDS011;35570;48.218;16.326;2023-03-19T09:25:37;14.23;;;11.48;;
49678;SDS011;35570;48.218;16.326;2023-03-19T09:28:03;12.23;;;10.90;;
49678;SDS011;35570;48.218;16.326;2023-03-19T09:30:29;12.10;;;10.77;;
49678;SDS011;35570;48.218;16.326;2023-03-19T09:32:55;12.68;;;10.85;;
49678;SDS011;35570;48.218;16.326;2023-03-19T09:35:21;13.88;;;11.32;;
49678;SDS011;35570;48.218;16.326;2023-03-19T09:37:47;12.32;;;10.75;;
49678;SDS011;35570;48.218;16.326;2023-03-19T09:40:20;14.02;;;10.65;;
49678;SDS011;35570;48.218;16.326;2023-03-19T09:45:30;14.70;;;10.75;;
49678;SDS011;35570;48.218;16.326;2023-03-19T09:47:57;12.48;;;11.07;;
49678;SDS011;35570;48.218;16.326;2023-03-19T09:50:29;14.10;;;10.68;;
49678;SDS011;35570;48.218;16.326;2023-03-19T09:58:31;13.80;;;10.70;;
49678;SDS011;35570;48.218;16.326;2023-03-19T10:00:56;12.48;;;10.52;;
49678;SDS011;35570;48.218;16.326;2023-03-19T10:06:36;15.27;;;11.20;;
49678;SDS011;35570;48.218;16.326;2023-03-19T10:12:13;13.38;;;11.77;;
49678;SDS011;35570;48.218;16.326;2023-03-19T10:17:29;13.00;;;11.15;;
49678;SDS011;35570;48.218;16.326;2023-03-19T10:20:06;11.38;;;10.27;;
49678;SDS011;35570;48.218;16.326;2023-03-19T10:22:38;12.63;;;10.30;;
49678;SDS011;35570;48.218;16.326;2023-03-19T10:25:22;11.88;;;10.65;;
49678;SDS011;35570;48.218;16.326;2023-03-19T10:28:04;13.20;;;11.80;;
49678;SDS011;35570;48.218;16.326;2023-03-19T10:30:37;11.70;;;10.50;;
49678;SDS011;35570;48.218;16.326;2023-03-19T10:33:24;13.10;;;10.43;;
49678;SDS011;35570;48.218;16.326;2023-03-19T10:35:56;13.70;;;10.45;;
49678;SDS011;35570;48.218;16.326;2023-03-19T10:38:27;11.60;;;10.40;;
49678;SDS011;35570;48.218;16.326;2023-03-19T10:41:04;13.40;;;10.90;;
49678;SDS011;35570;48.218;16.326;2023-03-19T10:43:53;11.75;;;10.55;;
49678;SDS011;35570;48.218;16.326;2023-03-19T10:46:23;13.70;;;11.13;;
49678;SDS011;35570;48.218;16.326;2023-03-19T10:48:49;15.38;;;10.48;;
49678;SDS011;35570;48.218;16.326;2023-03-19T10:51:15;14.40;;;11.10;;
49678;SDS011;35570;48.218;16.326;2023-03-19T10:53:46;13.13;;;10.80;;
49678;SDS011;35570;48.218;16.326;2023-03-19T10:56:16;12.77;;;10.48;;
49678;SDS011;35570;48.218;16.326;2023-03-19T10:59:01;11.63;;;9.75;;
49678;SDS011;35570;48.218;16.326;2023-03-19T11:01:30;11.65;;;9.77;;
49678;SDS011;35570;48.218;16.326;2023-03-19T11:04:10;11.57;;;10.20;;
49678;SDS011;35570;48.218;16.326;2023-03-19T11:06:38;11.48;;;10.27;;
49678;SDS011;35570;48.218;16.326;2023-03-19T11:11:45;12.93;;;10.57;;
49678;SDS011;35570;48.218;16.326;2023-03-19T11:14:14;11.70;;;9.85;;
49678;SDS011;35570;48.218;16.326;2023-03-19T11:19:26;12.30;;;10.65;;
49678;SDS011;35570;48.218;16.326;2023-03-19T11:22:00;14.68;;;10.70;;
49678;SDS011;35570;48.218;16.326;2023-03-19T11:24:37;10.77;;;9.68;;
49678;SDS011;35570;48.218;16.326;2023-03-19T11:27:05;14.23;;;12.10;;
49678;SDS011;35570;48.218;16.326;2023-03-19T11:29:34;12.10;;;10.80;;
49678;SDS011;35570;48.218;16.326;2023-03-19T11:32:25;11.05;;;9.55;;
49678;SDS011;35570;48.218;16.326;2023-03-19T11:35:20;13.13;;;11.70;;
49678;SDS011;35570;48.218;16.326;2023-03-19T11:37:59;11.88;;;10.43;;
49678;SDS011;35570;48.218;16.326;2023-03-19T11:40:33;11.95;;;10.68;;
49678;SDS011;35570;48.218;16.326;2023-03-19T11:51:34;13.30;;;10.60;;
49678;SDS011;35570;48.218;16.326;2023-03-19T12:02:44;14.55;;;10.75;;
49678;SDS011;35570;48.218;16.326;2023-03-19T12:10:49;11.73;;;9.75;;
49678;SDS011;35570;48.218;16.326;2023-03-19T12:18:22;11.70;;;9.88;;
49678;SDS011;35570;48.218;16.326;2023-03-19T12:21:17;12.80;;;11.20;;
49678;SDS011;35570;48.218;16.326;2023-03-19T12:32:50;11.57;;;9.98;;
49678;SDS011;35570;48.218;16.326;2023-03-19T12:35:38;12.73;;;10.10;;
49678;SDS011;35570;48.218;16.326;2023-03-19T12:38:40;10.70;;;9.57;;
49678;SDS011;35570;48.218;16.326;2023-03-19T12:41:09;11.93;;;9.18;;
49678;SDS011;35570;48.218;16.326;2023-03-19T12:49:04;13.20;;;9.63;;
49678;SDS011;35570;48.218;16.326;2023-03-19T12:51:49;11.57;;;8.88;;
49678;SDS011;35570;48.218;16.326;2023-03-19T12:54:34;9.75;;;8.70;;
49678;SDS011;35570;48.218;16.326;2023-03-19T12:57:09;11.90;;;9.15;;
49678;SDS011;35570;48.218;16.326;2023-03-19T12:59:42;12.70;;;9.40;;
49678;SDS011;35570;48.218;16.326;2023-03-19T13:02:29;10.65;;;8.20;;
49678;SDS011;35570;48.218;16.326;2023-03-19T13:10:37;11.20;;;9.45;;
49678;SDS011;35570;48.218;16.326;2023-03-19T13:15:58;11.38;;;10.18;;
49678;SDS011;35570;48.218;16.326;2023-03-19T13:19:01;12.82;;;8.88;;
49678;SDS011;35570;48.218;16.326;2023-03-19T13:21:44;11.85;;;9.00;;
49678;SDS011;35570;48.218;16.326;2023-03-19T13:24:18;11.55;;;8.95;;
49678;SDS011;35570;48.218;16.326;2023-03-19T13:26:52;10.55;;;8.70;;
49678;SDS011;35570;48.218;16.326;2023-03-19T13:31:45;10.07;;;9.00;;
49678;SDS011;35570;48.218;16.326;2023-03-19T13:34:25;10.95;;;9.32;;
49678;SDS011;35570;48.218;16.326;2023-03-19T13:39:27;11.98;;;8.90;;
49678;SDS011;35570;48.218;16.326;2023-03-19T13:44:51;13.98;;;10.18;;
49678;SDS011;35570;48.218;16.326;2023-03-19T13:50:06;12.48;;;9.27;;
49678;SDS011;35570;48.218;16.326;2023-03-19T13:58:24;10.43;;;8.55;;
49678;SDS011;35570;48.218;16.326;2023-03-19T14:01:06;10.90;;;8.70;;
49678;SDS011;35570;48.218;16.326;2023-03-19T14:03:35;13.93;;;9.52;;
49678;SDS011;35570;48.218;16.326;2023-03-19T14:06:03;12.32;;;9.95;;
49678;SDS011;35570;48.218;16.326;2023-03-19T14:08:43;10.63;;;8.43;;
49678;SDS011;35570;48.218;16.326;2023-03-19T14:11:20;11.27;;;8.57;;
49678;SDS011;35570;48.218;16.326;2023-03-19T14:13:53;12.40;;;8.50;;
49678;SDS011;35570;48.218;16.326;2023-03-19T14:16:24;10.13;;;8.63;;
49678;SDS011;35570;48.218;16.326;2023-03-19T14:21:31;13.13;;;8.75;;
49678;SDS011;35570;48.218;16.326;2023-03-19T14:24:18;10.18;;;8.35;;
49678;SDS011;35570;48.218;16.326;2023-03-19T14:26:52;11.75;;;8.57;;
49678;SDS011;35570;48.218;16.326;2023-03-19T14:29:19;12.20;;;9.02;;
49678;SDS011;35570;48.218;16.326;2023-03-19T14:31:51;10.00;;;8.73;;
49678;SDS011;35570;48.218;16.326;2023-03-19T14:36:57;9.98;;;8.38;;
49678;SDS011;35570;48.218;16.326;2023-03-19T14:39:31;9.68;;;8.30;;
49678;SDS011;35570;48.218;16.326;2023-03-19T14:42:15;10.55;;;7.88;;
49678;SDS011;35570;48.218;16.326;2023-03-19T14:55:38;11.27;;;8.75;;
49678;SDS011;35570;48.218;16.326;2023-03-19T14:58:04;11.43;;;8.55;;
49678;SDS011;35570;48.218;16.326;2023-03-19T15:00:43;10.27;;;8.55;;
49678;SDS011;35570;48.218;16.326;2023-03-19T15:03:53;12.07;;;9.55;;
49678;SDS011;35570;48.218;16.326;2023-03-19T15:06:02;13.07;;;9.07;;
49678;SDS011;35570;48.218;16.326;2023-03-19T15:08:32;12.52;;;9.00;;
49678;SDS011;35570;48.218;16.326;2023-03-19T15:13:45;13.00;;;9.27;;
49678;SDS011;35570;48.218;16.326;2023-03-19T15:17:04;10.38;;;8.25;;
49678;SDS011;35570;48.218;16.326;2023-03-19T15:19:30;11.27;;;8.77;;
49678;SDS011;35570;48.218;16.326;2023-03-19T15:22:02;12.73;;;8.68;;
49678;SDS011;35570;48.218;16.326;2023-03-19T15:24:29;10.05;;;8.43;;
49678;SDS011;35570;48.218;16.326;2023-03-19T15:26:55;11.65;;;8.70;;
49678;SDS011;35570;48.218;16.326;2023-03-19T15:29:33;13.10;;;8.63;;
49678;SDS011;35570;48.218;16.326;2023-03-19T15:31:59;11.05;;;8.25;;
49678;SDS011;35570;48.218;16.326;2023-03-19T15:34:27;10.98;;;8.77;;
49678;SDS011;35570;48.218;16.326;2023-03-19T15:36:55;11.25;;;8.98;;
49678;SDS011;35570;48.218;16.326;2023-03-19T15:39:29;11.93;;;8.55;;
49678;SDS011;35570;48.218;16.326;2023-03-19T15:42:00;12.52;;;8.75;;
49678;SDS011;35570;48.218;16.326;2023-03-19T15:47:00;10.93;;;8.43;;
49678;SDS011;35570;48.218;16.326;2023-03-19T15:49:31;10.32;;;8.75;;
49678;SDS011;35570;48.218;16.326;2023-03-19T15:52:03;10.98;;;9.25;;
49678;SDS011;35570;48.218;16.326;2023-03-19T15:54:33;13.55;;;9.27;;
49678;SDS011;35570;48.218;16.326;2023-03-19T15:56:59;11.38;;;8.70;;
49678;SDS011;35570;48.218;16.326;2023-03-19T15:59:25;11.77;;;9.35;;
49678;SDS011;35570;48.218;16.326;2023-03-19T16:02:00;13.50;;;9.52;;
49678;SDS011;35570;48.218;16.326;2023-03-19T16:04:28;13.52;;;8.55;;
49678;SDS011;35570;48.218;16.326;2023-03-19T16:06:57;14.90;;;9.80;;
49678;SDS011;35570;48.218;16.326;2023-03-19T16:09:26;12.23;;;9.73;;
49678;SDS011;35570;48.218;16.326;2023-03-19T16:11:59;12.57;;;8.70;;
49678;SDS011;35570;48.218;16.326;2023-03-19T16:14:30;11.25;;;8.55;;
49678;SDS011;35570;48.218;16.326;2023-03-19T16:17:13;12.95;;;8.85;;
49678;SDS011;35570;48.218;16.326;2023-03-19T16:19:53;12.82;;;8.88;;
49678;SDS011;35570;48.218;16.326;2023-03-19T16:22:27;13.13;;;10.03;;
49678;SDS011;35570;48.218;16.326;2023-03-19T16:24:55;12.00;;;9.40;;
49678;SDS011;35570;48.218;16.326;2023-03-19T16:27:30;11.48;;;8.75;;
49678;SDS011;35570;48.218;16.326;2023-03-19T16:30:00;11.55;;;8.73;;
49678;SDS011;35570;48.218;16.326;2023-03-19T16:32:30;12.75;;;9.52;;
49678;SDS011;35570;48.218;16.326;2023-03-19T16:42:43;15.38;;;10.80;;
49678;SDS011;35570;48.218;16.326;2023-03-19T16:47:46;12.43;;;9.55;;
49678;SDS011;35570;48.218;16.326;2023-03-19T16:50:14;14.10;;;9.80;;
49678;SDS011;35570;48.218;16.326;2023-03-19T16:52:42;12.38;;;9.10;;
49678;SDS011;35570;48.218;16.326;2023-03-19T16:57:53;15.15;;;11.82;;
49678;SDS011;35570;48.218;16.326;2023-03-19T17:00:25;15.02;;;10.80;;
49678;SDS011;35570;48.218;16.326;2023-03-19T17:02:52;14.65;;;8.90;;
49678;SDS011;35570;48.218;16.326;2023-03-19T17:05:23;16.83;;;10.38;;
49678;SDS011;35570;48.218;16.326;2023-03-19T17:07:50;13.82;;;9.55;;
49678;SDS011;35570;48.218;16.326;2023-03-19T17:10:18;13.95;;;9.63;;
49678;SDS011;35570;48.218;16.326;2023-03-19T17:12:49;15.98;;;11.25;;
49678;SDS011;35570;48.218;16.326;2023-03-19T17:17:58;18.60;;;11.40;;
49678;SDS011;35570;48.218;16.326;2023-03-19T17:20:29;15.02;;;11.27;;
49678;SDS011;35570;48.218;16.326;2023-03-19T17:22:58;17.80;;;13.27;;